x

Lake Winnipeg North (45144) Wave Buoy

9:00pm - Wed 16th Aug 2017 All times are UTC.

  • Sig Wave height 1.6ft
  • Peak Period 5s
  • Wind
    11mph, 13mph gusts
  • Sea Temp 71°f
  • Air Temp 71°f
  • Sea Pressure 1008.9mb

More Historic Weather Station data

Upgrade to MSW Pro to gain access to the past 30 days of data for over 8000 Wavebouys and Weather Stations around the globe.

Join

Comparision Forecast

View Surf forecast
   
Wed 08/16 9:00pm 1.6ft 5s 11 13 mph 1008.9mb 71f 71f
8:00pm 2ft 5s 7 9 mph 1009.2mb 71f 71f
7:00pm 2ft 5s 9 11 mph 1009.3mb 70f 70f
6:00pm 2.5ft 5s 11 13 mph 1009.5mb 70f 69f
5:00pm 2.5ft 5s 11 13 mph 1009.7mb 70f 68f
4:00pm 3ft 5s 11 13 mph 1009.8mb 70f 67f
3:00pm  -   -  13
mph
- - -
2:00pm 3.5ft 5s 18 20 mph 1009.8mb 70f 67f
1:00pm 3.5ft 4s 20 22 mph 1009.9mb 70f 67f
12:00pm 3ft 4s 18 22 mph 1009.8mb 70f 68f
11:00am 2.5ft 4s 18 22 mph 1009.6mb 70f 69f
10:00am 2.5ft 3s 18 22 mph 1009.8mb 70f 69f
9:00am 2ft 3s 16 20 mph 1009.7mb 70f 70f
8:00am 2ft 4s 16 18 mph 1009.7mb 70f 70f
7:00am 2ft 3s 16 20 mph 1010mb 70f 71f
6:00am 1.6ft 3s 16 18 mph 1010mb 70f 71f
5:00am 1.3ft 4s 13 16 mph 1010.1mb 70f 71f
4:00am 1.6ft 3s 13 13 mph 1010.3mb 70f 71f
3:00am 1.6ft 3s 9 9 mph 1010.3mb 70f 71f
2:00am 1.6ft 4s 20 25 mph 1010.6mb 70f 72f
1:00am 1.6ft 4s 16 22 mph 1010.3mb 70f 70f
12:00am 1.6ft 4s 9 11 mph 1010.5mb 70f 71f
Tue 08/15 11:00pm 1.6ft 4s 11 13 mph 1010.7mb 71f 72f
10:00pm 2ft 4s 11 13 mph 1010.6mb 70f 71f
9:00pm 2.5ft 4s 13 16 mph 1010.8mb 70f 71f
8:00pm 2.5ft 4s 16 18 mph 1011.4mb 70f 70f
7:00pm 2.5ft 4s 16 18 mph 1011.7mb 70f 69f
6:00pm 2.5ft 5s 16 18 mph 1012mb 70f 69f
5:00pm 2.5ft 5s 16 18 mph 1012.1mb 70f 69f
4:00pm 2.5ft 5s 13 16 mph 1011.7mb 70f 69f
3:00pm 2.5ft 5s 13 18 mph 1011.7mb 70f 69f
2:00pm 3ft 5s 16 18 mph 1011.7mb 70f 69f
1:00pm 3.5ft 5s 16 18 mph 1011.8mb 70f 69f
12:00pm 3.5ft 5s 16 18 mph 1012.1mb 70f 70f
11:00am 3.5ft 5s 16 20 mph 1011.8mb 70f 70f
10:00am 3.5ft 4s 20 22 mph 1012mb 71f 70f
9:00am 3ft 4s 20 25 mph 1012.1mb 71f 70f
8:00am 2.5ft 4s 20 25 mph 1011.9mb 71f 71f
7:00am 1.3ft 2s 20 22 mph 1011.5mb 72f 72f
6:00am 0.7ft 2s 16 18 mph 1011.6mb 73f 73f
5:00am  -  2s 11 16 mph 1011.6mb 73f 72f
4:00am  -  2s 2 4 mph 1011.7mb 73f 72f
3:00am  -  2s 4 4 mph 1011.6mb 73f 73f
2:00am 0.3ft 3s 4 7 mph 1011.3mb 74f 73f
1:00am 0.3ft 3s 7 7 mph 1011.2mb 74f 74f
Mon 08/14 11:00pm 0.3ft 3s 4 4 mph 1011.7mb 75f 74f
10:00pm 0.3ft 2s 4 4 mph 1011.9mb 75f 74f
9:00pm 0.3ft 3s 2 4 mph 1012.1mb 75f 74f
8:00pm 0.7ft 3s 2 4 mph 1012.5mb 74f 73f
7:00pm 0.7ft 3s 2 4 mph 1012.8mb 73f 72f
6:00pm 0.7ft 3s 7 9 mph 1012.6mb 72f 71f
5:00pm 0.7ft 3s 7 9 mph 1012.4mb 72f 71f
4:00pm 1ft 3s 7 9 mph 1012.5mb 71f 71f
3:00pm 0.7ft 3s 7 9 mph 1012.4mb 71f 71f
2:00pm 0.7ft 3s 9 11 mph 1012.2mb 71f 71f
1:00pm 0.7ft 3s 7 9 mph 1012.2mb 71f 71f
12:00pm 0.7ft 2s 7 7 mph 1011.9mb 71f 71f
11:00am 0.7ft 2s 11 11 mph 1011.5mb 71f 71f
10:00am 0.3ft 2s 9 11 mph 1011.4mb 72f 71f
9:00am 0.3ft 2s 9 11 mph 1011.4mb 72f 72f
8:00am 0.3ft 2s 9 9 mph 1011.2mb 72f 72f
7:00am 0.3ft 2s 7 9 mph 1010.9mb 72f 72f
6:00am 0.3ft 2s 7 7 mph 1010.9mb 72f 73f
5:00am  -  2s 7 9 mph 1010.8mb 72f 73f
4:00am  -  3s 7 7 mph 1010.7mb 72f 73f
3:00am 0.3ft 2s 4 4 mph 1010.7mb 72f 74f
2:00am 0.3ft 3s 4 4 mph 1010.8mb 72f 74f
1:00am 0.3ft 3s 7 9 mph 1010.7mb 72f 76f
12:00am 0.3ft 2s 7 7 mph 1010.6mb 73f 74f
Sun 08/13 11:00pm 0.3ft 2s 7 9 mph 1011mb 73f 75f
10:00pm 0.3ft 2s 9 9 mph 1011.4mb 73f 75f
9:00pm 0.3ft 2s 9 9 mph 1011.8mb 73f 74f
8:00pm 0.3ft 2s 7 9 mph 1012.2mb 73f 74f
7:00pm 0.7ft 2s 4 4 mph 1012.6mb 72f 73f
6:00pm 1ft 3s 4 7 mph 1012.8mb 71f 72f
5:00pm 1ft 3s 7 9 mph 1013mb 71f 72f
4:00pm 1ft 3s 9 11 mph 1013.2mb 71f 71f
3:00pm 1ft 3s 11 13 mph 1013.4mb 71f 71f
2:00pm 1ft 3s 11 13 mph 1013.7mb 71f 71f
1:00pm 1ft 3s 11 13 mph 1013.8mb 71f 71f
12:00pm 1ft 3s 11 13 mph 1014mb 71f 71f
11:00am 1ft 3s 11 13 mph 1014mb 71f 71f
10:00am 1ft 3s 11 13 mph 1014.1mb 71f 71f
9:00am 0.7ft 2s 9 11 mph 1014.1mb 71f 72f
8:00am 0.7ft 2s 9 11 mph 1014.2mb 71f 72f
7:00am 0.7ft 2s 9 11 mph 1014.3mb 71f 72f
6:00am 0.7ft 2s 9 13 mph 1014.7mb 72f 73f
5:00am 0.7ft 2s 11 11 mph 1014.8mb 72f 73f
4:00am 0.3ft 2s 13 13 mph 1014.7mb 72f 74f
3:00am 0.3ft 2s 9 9 mph 1014.8mb 72f 74f
2:00am 0.3ft 2s 7 9 mph 1014.9mb 73f 74f
1:00am 0.3ft 2s 9 9 mph 1014.9mb 73f 74f
12:00am 0.3ft 2s 7 7 mph 1015.4mb 73f 74f
Sat 08/12 11:00pm 0.3ft 2s 9 9 mph 1015.7mb 73f 74f